Time;durP1;ratioP1;P1;durP2;ratioP2;P2;SDS_P1;SDS_P2;PMS_P1;PMS_P2;Temp;Humidity;BMP_temperature;BMP_pressure;BME280_temperature;BME280_humidity;BME280_pressure;Samples;Min_cycle;Max_cycle;Signal;HPM_P1;HPM_P2
2022/08/18 00:02:03;;;;;;;6.38;4.18;;;;;;;22.16;63.79;64296.41;4950757;29;20424;-78
2022/08/18 00:04:31;;;;;;;4.18;3.75;;;;;;;22.24;62.15;64299.59;4938315;29;20264;-78
2022/08/18 00:06:58;;;;;;;4.22;3.55;;;;;;;22.24;62.38;64304.78;4947665;29;20268;-77
2022/08/18 00:09:25;;;;;;;4.55;4.22;;;;;;;22.10;63.04;64284.44;4938821;29;20301;-77
2022/08/18 00:11:53;;;;;;;4.53;3.80;;;;;;;22.06;63.60;64285.97;4938414;29;20269;-77
2022/08/18 00:14:21;;;;;;;4.40;4.10;;;;;;;22.03;63.90;64282.31;4950390;29;20296;-78
2022/08/18 00:16:52;;;;;;;4.65;3.88;;;;;;;21.95;65.10;64273.94;4947003;29;20205;-79
2022/08/18 00:19:19;;;;;;;5.20;4.05;;;;;;;21.89;65.04;64265.59;4951009;29;20705;-77
2022/08/18 00:21:46;;;;;;;6.57;3.97;;;;;;;21.85;65.69;64261.44;4951004;29;20256;-80
2022/08/18 00:24:13;;;;;;;4.78;4.20;;;;;;;21.78;65.83;64257.22;4948904;29;20453;-79
2022/08/18 00:26:40;;;;;;;5.53;4.07;;;;;;;21.78;66.00;64256.69;4937942;29;20417;-78
2022/08/18 00:29:07;;;;;;;4.47;4.18;;;;;;;21.71;65.97;64252.50;4937977;29;20232;-77
2022/08/18 00:31:35;;;;;;;4.82;3.85;;;;;;;21.65;66.67;64240.50;4937598;29;20236;-78
2022/08/18 00:34:03;;;;;;;5.20;4.70;;;;;;;21.55;66.97;64232.66;4947760;29;20229;-79
2022/08/18 00:36:32;;;;;;;6.28;4.55;;;;;;;21.57;67.31;64234.75;4945298;29;20370;-79
2022/08/18 00:38:59;;;;;;;4.35;3.95;;;;;;;21.54;67.48;64232.13;4933436;29;20237;-78
2022/08/18 00:41:27;;;;;;;5.88;4.30;;;;;;;21.52;68.67;64230.03;4930545;29;20220;-79
2022/08/18 00:43:57;;;;;;;3.97;3.67;;;;;;;21.50;69.16;64227.94;4938654;29;20236;-79
2022/08/18 00:46:27;;;;;;;4.57;4.18;;;;;;;21.45;70.55;64217.53;4950015;29;20299;-77
2022/08/18 00:48:54;;;;;;;7.05;4.05;;;;;;;21.35;71.26;64216.94;4945601;29;20235;-76
2022/08/18 00:51:27;;;;;;;4.85;4.55;;;;;;;21.28;71.49;64204.97;4947571;29;20261;-77
2022/08/18 00:54:00;;;;;;;4.72;4.43;;;;;;;21.20;71.49;64191.44;4945582;29;20292;-78
2022/08/18 00:56:32;;;;;;;4.47;4.18;;;;;;;21.17;72.06;64192.97;4949933;29;20287;-78
2022/08/18 00:59:04;;;;;;;6.40;4.75;;;;;;;21.13;71.58;64181.53;4937953;29;20257;-78
2022/08/18 01:01:33;;;;;;;5.22;4.68;;;;;;;21.17;72.80;64192.97;4944081;29;20220;-78
2022/08/18 01:04:04;;;;;;;5.78;5.07;;;;;;;21.04;72.82;64177.31;4943383;29;20297;-77
2022/08/18 01:06:39;;;;;;;5.55;5.10;;;;;;;21.01;73.55;64173.66;4946854;29;20232;-78
2022/08/18 01:09:07;;;;;;;5.47;5.00;;;;;;;20.95;73.68;64170.47;4929328;29;20228;-78
2022/08/18 01:11:37;;;;;;;10.73;4.80;;;;;;;20.88;74.48;64160.06;4948928;29;20226;-77
2022/08/18 01:14:04;;;;;;;4.95;4.60;;;;;;;20.81;75.33;64155.88;4945407;29;20225;-77
2022/08/18 01:22:19;;;;;;;5.22;4.88;;;;;;;20.64;77.08;64138.66;4945381;29;20235;-77
2022/08/18 01:27:32;;;;;;;5.50;5.00;;;;;;;20.56;76.35;64127.19;4938875;29;20329;-78
2022/08/18 01:30:09;;;;;;;5.97;5.38;;;;;;;20.48;77.67;64118.84;4947762;29;20684;-76
2022/08/18 01:32:37;;;;;;;5.45;5.03;;;;;;;20.47;77.79;64117.78;4940538;29;20220;-77
2022/08/18 01:35:08;;;;;;;5.45;5.13;;;;;;;20.39;78.64;64109.44;4934518;29;20221;-77
2022/08/18 01:37:36;;;;;;;6.00;5.50;;;;;;;20.36;78.30;64106.81;4940865;29;20264;-79
2022/08/18 01:40:08;;;;;;;5.53;4.97;;;;;;;20.35;77.53;64105.25;4947336;29;20268;-79
2022/08/18 01:42:36;;;;;;;9.07;5.43;;;;;;;20.35;77.84;64107.84;4947182;29;20244;-79
2022/08/18 01:45:04;;;;;;;8.70;5.30;;;;;;;20.33;78.20;64106.28;4931588;29;20229;-78
2022/08/18 01:47:33;;;;;;;5.25;4.95;;;;;;;20.21;80.05;64096.34;4945462;29;20235;-79
2022/08/18 01:50:00;;;;;;;6.05;5.55;;;;;;;20.17;79.86;64086.50;4949013;29;20490;-78
2022/08/18 01:52:28;;;;;;;5.38;4.95;;;;;;;20.04;80.83;64072.91;4948911;29;20212;-79
2022/08/18 01:54:57;;;;;;;5.85;5.43;;;;;;;20.05;79.91;64073.94;4945828;29;20400;-78
2022/08/18 01:57:26;;;;;;;5.40;5.00;;;;;;;20.07;79.47;64076.03;4949674;29;20224;-78
2022/08/18 01:59:54;;;;;;;6.30;5.68;;;;;;;20.03;81.35;64074.44;4941589;29;20253;-77
2022/08/18 02:02:24;;;;;;;10.30;6.15;;;;;;;19.97;80.19;64065.59;4929945;29;20300;-77
2022/08/18 02:04:55;;;;;;;6.05;5.55;;;;;;;20.01;79.48;64078.06;4937229;29;20272;-77
2022/08/18 02:07:22;;;;;;;5.57;5.22;;;;;;;19.97;79.47;64068.69;4934236;29;20255;-77
2022/08/18 02:09:49;;;;;;;7.18;5.72;;;;;;;20.03;80.78;64072.38;4938481;29;20251;-79
2022/08/18 02:12:17;;;;;;;6.60;5.95;;;;;;;20.07;81.14;64081.22;4934936;29;20205;-77
2022/08/18 02:14:45;;;;;;;5.47;5.07;;;;;;;20.04;80.54;64078.06;4948534;29;20233;-78
2022/08/18 02:17:14;;;;;;;6.82;5.57;;;;;;;20.04;80.34;64070.84;4948172;29;20208;-77
2022/08/18 02:19:43;;;;;;;6.97;5.07;;;;;;;20.06;81.41;64078.09;4941682;29;20225;-77
2022/08/18 02:22:12;;;;;;;6.40;5.80;;;;;;;19.88;83.26;64061.88;4937254;29;20213;-77
2022/08/18 02:24:40;;;;;;;8.18;6.22;;;;;;;19.92;83.02;64065.53;4931104;29;20237;-81
2022/08/18 02:27:08;;;;;;;7.47;5.85;;;;;;;19.99;81.97;64065.63;4940308;29;20236;-78
2022/08/18 02:29:36;;;;;;;6.18;5.55;;;;;;;19.98;82.53;64069.22;4947916;29;20232;-78
2022/08/18 02:32:05;;;;;;;5.65;5.25;;;;;;;19.99;82.77;64072.84;4943637;29;20201;-77
2022/08/18 02:34:33;;;;;;;5.45;5.00;;;;;;;20.00;83.23;64073.91;4928381;29;20233;-78
2022/08/18 02:37:01;;;;;;;6.78;5.50;;;;;;;19.96;83.10;64067.13;4928851;29;20213;-79
2022/08/18 02:39:29;;;;;;;6.20;5.70;;;;;;;20.01;82.94;64072.88;4942254;29;20255;-78
2022/08/18 02:41:56;;;;;;;5.63;5.13;;;;;;;20.02;82.84;64076.00;4941776;29;20241;-77
2022/08/18 02:44:23;;;;;;;6.65;5.88;;;;;;;19.98;83.69;64067.16;4933353;29;20237;-79
2022/08/18 02:46:53;;;;;;;7.60;6.15;;;;;;;19.92;83.26;64060.38;4931102;29;20271;-78
2022/08/18 02:49:22;;;;;;;6.68;5.90;;;;;;;19.87;83.36;64058.28;4941486;29;20258;-78
2022/08/18 02:51:50;;;;;;;8.45;5.40;;;;;;;19.83;83.94;64054.09;4947243;29;20218;-78
2022/08/18 02:54:19;;;;;;;6.43;5.82;;;;;;;19.80;84.98;64050.44;4949810;29;20471;-79
2022/08/18 02:56:46;;;;;;;5.50;5.15;;;;;;;19.78;85.00;64046.28;4946555;29;20207;-78
2022/08/18 02:59:16;;;;;;;6.43;5.80;;;;;;;19.74;86.00;64044.19;4947005;29;20263;-80
2022/08/18 03:01:46;;;;;;;7.05;5.35;;;;;;;19.75;86.54;64040.06;4947532;29;20589;-78
2022/08/18 03:04:18;;;;;;;6.75;6.13;;;;;;;19.67;86.53;64036.88;4936561;29;20402;-78
2022/08/18 03:06:47;;;;;;;6.05;5.63;;;;;;;19.66;87.31;64030.66;4951236;29;20485;-77
2022/08/18 03:09:16;;;;;;;6.32;5.70;;;;;;;19.70;87.61;64037.44;4946757;29;20248;-78
2022/08/18 03:11:44;;;;;;;6.45;5.85;;;;;;;19.60;87.78;64029.59;4952178;29;20223;-78
2022/08/18 03:14:12;;;;;;;5.93;5.45;;;;;;;19.63;87.97;64033.22;4950771;29;20261;-78
2022/08/18 03:16:40;;;;;;;6.10;5.70;;;;;;;19.62;88.39;64032.19;4949717;29;20264;-77
2022/08/18 03:19:08;;;;;;;6.88;6.28;;;;;;;19.55;89.38;64022.31;4950795;29;20228;-77
2022/08/18 03:21:38;;;;;;;9.43;5.75;;;;;;;19.52;89.68;64021.75;4952003;29;20259;-77
2022/08/18 03:24:07;;;;;;;6.78;6.13;;;;;;;19.51;89.97;64020.72;4951429;29;20279;-77
2022/08/18 03:26:35;;;;;;;9.30;5.72;;;;;;;19.47;90.27;64019.13;4951227;29;20204;-77
2022/08/18 03:29:02;;;;;;;6.88;6.32;;;;;;;19.51;90.26;64018.13;4950506;29;20414;-77
2022/08/18 03:31:31;;;;;;;6.35;5.75;;;;;;;19.45;91.54;64017.56;4951844;29;20235;-76
2022/08/18 03:34:00;;;;;;;7.32;6.28;;;;;;;19.42;91.72;64011.84;4933633;29;20292;-77
2022/08/18 03:36:30;;;;;;;9.02;6.38;;;;;;;19.36;91.67;64005.59;4949599;29;20201;-77
2022/08/18 03:38:58;;;;;;;6.28;5.68;;;;;;;19.37;91.58;64004.06;4952079;29;20236;-79
2022/08/18 03:41:28;;;;;;;7.45;6.85;;;;;;;19.40;92.34;64009.75;4951317;29;20207;-77
2022/08/18 03:43:55;;;;;;;6.57;6.07;;;;;;;19.39;92.52;64005.63;4939206;29;20451;-77
2022/08/18 03:46:24;;;;;;;7.05;6.40;;;;;;;19.38;92.43;64007.69;4944796;29;20393;-77
2022/08/18 03:48:52;;;;;;;6.32;5.80;;;;;;;19.40;92.47;64006.66;4936360;29;20241;-78
2022/08/18 03:51:23;;;;;;;7.05;5.68;;;;;;;19.41;92.37;64010.28;4931891;29;20208;-78
2022/08/18 03:53:51;;;;;;;6.38;5.70;;;;;;;19.39;92.70;64008.72;4941430;29;20225;-77
2022/08/18 03:56:22;;;;;;;6.53;5.90;;;;;;;19.41;92.13;64010.81;4944320;29;20229;-78
2022/08/18 03:58:53;;;;;;;7.10;6.32;;;;;;;19.46;91.81;64018.63;4932092;29;20229;-78
2022/08/18 04:01:23;;;;;;;7.45;5.78;;;;;;;19.52;91.75;64019.69;4933867;29;20230;-79
2022/08/18 04:03:55;;;;;;;7.13;5.88;;;;;;;19.59;91.33;64031.13;4946974;29;20221;-78
2022/08/18 04:06:25;;;;;;;8.27;5.40;;;;;;;19.63;90.78;64030.13;4947932;29;20208;-78
2022/08/18 04:08:52;;;;;;;6.18;5.68;;;;;;;19.67;90.80;64037.41;4940677;29;20245;-76
2022/08/18 04:11:20;;;;;;;10.20;6.05;;;;;;;19.75;91.00;64043.16;4947764;29;20281;-77
2022/08/18 04:13:47;;;;;;;6.50;6.05;;;;;;;19.81;91.17;64054.59;4939093;29;20222;-78
2022/08/18 04:16:16;;;;;;;6.90;5.90;;;;;;;19.89;90.60;64054.66;4946953;29;20240;-77
2022/08/18 04:18:44;;;;;;;9.10;6.15;;;;;;;19.98;89.08;64067.16;4944292;29;20235;-80
2022/08/18 04:21:13;;;;;;;5.90;5.15;;;;;;;20.11;88.75;64083.31;4940691;29;20248;-77
2022/08/18 04:23:41;;;;;;;7.03;5.95;;;;;;;20.17;88.61;64084.41;4950002;29;20224;-77
2022/08/18 04:26:11;;;;;;;6.25;5.65;;;;;;;20.25;88.04;64095.34;4952906;29;20219;-78
2022/08/18 04:28:38;;;;;;;6.03;5.55;;;;;;;20.37;86.32;64109.94;4939051;29;20253;-77
2022/08/18 04:31:10;;;;;;;5.55;5.10;;;;;;;20.40;86.49;64111.00;4945960;29;20220;-78
2022/08/18 04:33:40;;;;;;;6.18;5.68;;;;;;;20.49;85.23;64119.88;4940980;29;20537;-76
2022/08/18 04:36:10;;;;;;;7.80;6.18;;;;;;;20.62;84.83;64133.47;4931507;29;20209;-78
2022/08/18 04:38:37;;;;;;;6.18;5.68;;;;;;;20.76;84.60;64147.56;4931887;29;20221;-77
2022/08/18 04:41:05;;;;;;;9.27;6.20;;;;;;;20.86;82.66;64158.50;4940048;29;20208;-79
2022/08/18 04:43:32;;;;;;;7.72;5.88;;;;;;;20.85;82.98;64157.47;4944125;29;20620;-77
2022/08/18 04:46:00;;;;;;;5.85;5.35;;;;;;;20.89;83.28;64164.22;4930452;29;20209;-77
2022/08/18 04:48:32;;;;;;;10.13;5.53;;;;;;;21.03;82.83;64175.75;4931396;29;20237;-77
2022/08/18 04:51:06;;;;;;;6.15;5.57;;;;;;;21.00;83.69;64173.13;4944030;29;20272;-77
2022/08/18 04:53:46;;;;;;;7.50;6.55;;;;;;;20.86;85.15;64158.00;4950148;29;20224;-80
2022/08/18 04:56:17;;;;;;;8.10;6.65;;;;;;;20.79;85.62;64153.78;4937004;29;20208;-77
2022/08/18 04:58:50;;;;;;;6.65;6.00;;;;;;;20.84;85.49;64159.00;4940342;29;20220;-77
2022/08/18 05:01:20;;;;;;;8.25;6.10;;;;;;;20.86;86.99;64155.94;4941410;29;20212;-78
2022/08/18 05:03:49;;;;;;;11.13;6.57;;;;;;;20.75;86.07;64147.03;4948951;29;20237;-79
2022/08/18 05:06:18;;;;;;;7.43;6.80;;;;;;;20.85;85.03;64156.94;4949636;29;20212;-78
2022/08/18 05:08:47;;;;;;;7.95;7.03;;;;;;;20.81;86.51;64155.88;4948130;29;20260;-77
2022/08/18 05:11:14;;;;;;;12.13;7.13;;;;;;;20.98;87.08;64171.06;4932133;29;20213;-77
2022/08/18 05:13:43;;;;;;;8.85;7.10;;;;;;;20.92;87.96;64164.25;4930035;29;20425;-78
2022/08/18 05:16:10;;;;;;;9.45;7.20;;;;;;;20.99;86.49;64174.69;4929745;29;20244;-77
2022/08/18 05:18:39;;;;;;;8.48;7.50;;;;;;;21.19;85.00;64192.97;4949029;29;20600;-78
2022/08/18 05:21:07;;;;;;;9.15;7.60;;;;;;;21.44;84.26;64226.34;4948672;29;20204;-77
2022/08/18 05:23:36;;;;;;;9.10;7.88;;;;;;;21.65;81.94;64241.03;4949610;29;20236;-77
2022/08/18 05:26:04;;;;;;;7.50;6.68;;;;;;;21.81;81.58;64256.72;4941384;29;20225;-77
2022/08/18 05:28:34;;;;;;;7.72;6.57;;;;;;;21.95;81.52;64271.88;4947977;29;20240;-79
2022/08/18 05:31:07;;;;;;;9.35;7.03;;;;;;;21.97;79.59;64279.16;4930758;29;20225;-78
2022/08/18 05:33:34;;;;;;;8.55;7.00;;;;;;;22.01;81.07;64277.63;4943361;29;20255;-78
2022/08/18 05:36:04;;;;;;;11.32;8.10;;;;;;;21.86;81.40;64265.06;4947833;29;20209;-78
2022/08/18 05:38:47;;;;;;;9.10;7.43;;;;;;;21.96;81.28;64275.53;4949804;29;20263;-76
2022/08/18 05:41:19;;;;;;;10.55;7.35;;;;;;;21.92;81.58;64270.81;4937406;29;20205;-77
2022/08/18 05:43:48;;;;;;;8.23;7.45;;;;;;;22.03;81.38;64282.31;4934260;29;20232;-78
2022/08/18 05:46:17;;;;;;;10.77;7.55;;;;;;;22.11;80.25;64285.47;4946407;29;20211;-77
2022/08/18 05:48:44;;;;;;;8.52;7.25;;;;;;;22.22;79.55;64300.09;4951863;29;20430;-78
2022/08/18 05:51:18;;;;;;;9.95;7.38;;;;;;;22.10;78.80;64287.56;4949793;29;20216;-78
2022/08/18 05:56:46;;;;;;;10.20;9.00;;;;;;;22.18;78.79;64293.31;4931264;29;20232;-77
2022/08/18 05:59:18;;;;;;;10.77;8.10;;;;;;;22.53;77.52;64334.56;4937975;29;20300;-79
2022/08/18 06:01:51;;;;;;;10.32;7.63;;;;;;;22.41;76.93;64316.84;4938426;29;20504;-78
2022/08/18 06:04:28;;;;;;;13.60;7.90;;;;;;;22.55;76.31;64331.50;4948742;29;20228;-77
2022/08/18 06:06:57;;;;;;;7.95;7.13;;;;;;;22.63;75.80;64345.56;4947258;29;20224;-77
2022/08/18 06:09:32;;;;;;;12.45;8.73;;;;;;;22.59;75.19;64340.88;4936163;29;20248;-76
2022/08/18 06:12:09;;;;;;;11.48;8.35;;;;;;;22.58;75.00;64340.34;4947916;29;20243;-76
2022/08/18 06:14:40;;;;;;;13.25;8.00;;;;;;;22.60;74.85;64339.31;4947532;29;20292;-77
2022/08/18 06:17:20;;;;;;;15.30;7.63;;;;;;;22.81;74.29;64361.78;4949816;29;20287;-77
2022/08/18 06:20:00;;;;;;;10.85;7.50;;;;;;;22.95;73.48;64372.78;4947760;29;20263;-78
2022/08/18 06:22:38;;;;;;;9.68;7.93;;;;;;;23.01;71.02;64379.06;4945040;29;20219;-78
2022/08/18 06:25:15;;;;;;;12.73;7.93;;;;;;;22.99;72.33;64377.00;4948945;29;20261;-77
2022/08/18 06:27:54;;;;;;;7.57;6.82;;;;;;;23.22;71.91;64404.16;4935344;29;20206;-77
2022/08/18 06:30:26;;;;;;;10.45;7.72;;;;;;;23.28;71.84;64410.44;4945441;29;20541;-77
2022/08/18 06:33:10;;;;;;;8.20;7.35;;;;;;;23.29;71.55;64414.09;4932259;29;20273;-76
2022/08/18 06:35:43;;;;;;;10.30;7.38;;;;;;;23.42;71.38;64425.09;4929062;29;20201;-77
2022/08/18 06:38:41;;;;;;;10.23;6.63;;;;;;;23.57;70.01;64442.88;4928387;29;20491;-77
2022/08/18 06:41:16;;;;;;;13.77;8.18;;;;;;;23.62;68.98;64445.50;4934665;29;20211;-76
2022/08/18 06:43:58;;;;;;;7.57;6.88;;;;;;;23.77;68.35;64459.13;4938531;29;20253;-79
2022/08/18 06:46:38;;;;;;;9.20;7.55;;;;;;;23.88;68.16;64470.09;4928468;29;20217;-78
2022/08/18 06:49:08;;;;;;;8.25;6.82;;;;;;;23.99;67.43;64484.22;4941092;29;20254;-77
2022/08/18 06:51:36;;;;;;;15.70;7.05;;;;;;;23.96;68.56;64479.00;4928324;29;20474;-78
2022/08/18 06:54:06;;;;;;;14.50;7.10;;;;;;;24.20;67.23;64506.22;4939485;29;20224;-78
2022/08/18 06:56:46;;;;;;;9.18;6.38;;;;;;;24.38;65.68;64525.06;4943042;29;20268;-78
2022/08/18 06:59:17;;;;;;;8.50;6.85;;;;;;;24.60;64.10;64544.97;4947871;29;20260;-76
2022/08/18 07:01:46;;;;;;;10.05;6.82;;;;;;;24.62;63.37;64550.19;4945549;29;20247;-77
2022/08/18 07:04:45;;;;;;;7.75;6.97;;;;;;;24.82;63.01;64568.53;4942725;29;20226;-77
2022/08/18 07:07:20;;;;;;;7.82;6.60;;;;;;;24.79;62.74;64568.00;4937749;29;20201;-77
2022/08/18 07:09:48;;;;;;;7.72;7.03;;;;;;;24.80;62.39;64571.13;4928269;29;20251;-79
2022/08/18 07:12:23;;;;;;;9.70;7.22;;;;;;;25.01;62.57;64588.44;4930097;29;20201;-76
2022/08/18 07:14:54;;;;;;;9.38;6.80;;;;;;;25.15;60.72;64602.59;4932243;29;20315;-76
2022/08/18 07:17:25;;;;;;;12.85;6.72;;;;;;;25.29;60.96;64619.84;4946577;29;20208;-78
2022/08/18 07:20:02;;;;;;;11.40;7.13;;;;;;;25.56;58.66;64645.03;4948882;29;20237;-78
2022/08/18 07:22:29;;;;;;;10.13;6.70;;;;;;;25.54;58.44;64642.94;4935620;29;20204;-77
2022/08/18 07:25:01;;;;;;;9.70;7.78;;;;;;;25.57;58.67;64651.31;4937803;29;20291;-79
2022/08/18 07:27:47;;;;;;;12.93;7.07;;;;;;;25.67;59.37;64667.00;4941757;29;20225;-77
2022/08/18 07:30:28;;;;;;;7.25;6.45;;;;;;;25.88;57.14;64686.41;4927391;29;20249;-77
2022/08/18 07:33:02;;;;;;;10.13;7.22;;;;;;;25.78;56.33;64673.81;4938399;29;20205;-77
2022/08/18 07:35:38;;;;;;;7.03;6.00;;;;;;;25.76;55.53;64669.13;4940607;29;20204;-77
2022/08/18 07:38:16;;;;;;;6.47;6.05;;;;;;;25.80;54.70;64673.31;4932952;29;20213;-77
2022/08/18 07:40:50;;;;;;;8.25;5.53;;;;;;;26.08;54.37;64700.06;4930967;29;20212;-78
2022/08/18 07:43:26;;;;;;;7.57;6.60;;;;;;;26.09;53.58;64705.81;4941417;29;20221;-77
2022/08/18 07:45:57;;;;;;;10.65;5.78;;;;;;;26.19;54.00;64711.63;4940045;29;20212;-80
2022/08/18 07:48:32;;;;;;;11.73;5.35;;;;;;;26.57;53.04;64753.53;4947386;29;20296;-78
2022/08/18 07:51:06;;;;;;;5.47;4.90;;;;;;;26.80;52.75;64779.78;4935886;29;20204;-78
2022/08/18 07:53:45;;;;;;;5.70;4.72;;;;;;;26.88;50.35;64785.53;4949424;29;20252;-76
2022/08/18 07:56:28;;;;;;;5.60;5.10;;;;;;;27.05;48.93;64798.13;4946026;29;20261;-79
2022/08/18 07:59:03;;;;;;;10.77;5.30;;;;;;;27.22;48.35;64818.59;4935054;29;20313;-77
2022/08/18 08:01:40;;;;;;;6.00;5.25;;;;;;;27.07;47.67;64808.63;4943882;29;20220;-78
2022/08/18 08:04:14;;;;;;;7.78;4.68;;;;;;;27.05;48.01;64808.59;4930303;29;20260;-77
2022/08/18 08:06:45;;;;;;;5.28;4.93;;;;;;;27.07;48.72;64800.78;4943966;29;20238;-80
2022/08/18 08:09:23;;;;;;;4.80;4.50;;;;;;;27.08;45.85;64809.66;4944455;29;20303;-76
2022/08/18 08:11:56;;;;;;;4.63;4.22;;;;;;;26.97;46.33;64792.38;4944116;29;20262;-77
2022/08/18 08:14:39;;;;;;;4.65;4.15;;;;;;;27.16;45.49;64815.44;4940289;29;20221;-76
2022/08/18 08:17:16;;;;;;;5.50;5.05;;;;;;;27.49;45.07;64849.03;4941127;29;20417;-78
2022/08/18 08:20:14;;;;;;;4.63;4.22;;;;;;;27.74;45.37;64878.41;4949233;29;20231;-78
2022/08/18 08:22:59;;;;;;;6.97;4.72;;;;;;;27.52;46.26;64855.31;4930129;29;20240;-81
2022/08/18 08:25:34;;;;;;;9.82;5.32;;;;;;;27.73;46.63;64874.75;4947689;29;20251;-77
2022/08/18 08:28:13;;;;;;;7.03;5.18;;;;;;;27.90;46.86;64892.59;4938774;29;20231;-81
2022/08/18 08:30:49;;;;;;;7.68;4.93;;;;;;;27.89;44.88;64894.16;4950235;29;20232;-79
2022/08/18 08:33:23;;;;;;;5.05;4.55;;;;;;;27.71;44.91;64879.97;4939650;29;20201;-76
2022/08/18 08:35:59;;;;;;;4.65;4.45;;;;;;;27.67;45.19;64870.53;4941460;29;20209;-76
2022/08/18 08:38:36;;;;;;;6.57;4.95;;;;;;;27.61;45.28;64864.25;4945325;29;20665;-77
2022/08/18 08:41:08;;;;;;;8.82;5.35;;;;;;;27.56;45.71;64861.63;4941590;29;20209;-76
2022/08/18 08:43:41;;;;;;;5.35;4.82;;;;;;;27.77;45.19;64883.66;4941338;29;20220;-79
2022/08/18 08:46:14;;;;;;;5.85;4.60;;;;;;;28.07;42.98;64909.94;4941781;29;20212;-78
2022/08/18 08:48:44;;;;;;;5.25;3.90;;;;;;;28.26;42.31;64932.50;4945031;29;20248;-77
2022/08/18 08:51:33;;;;;;;5.72;4.45;;;;;;;28.38;43.05;64945.09;4944722;29;20211;-76
2022/08/18 08:54:09;;;;;;;4.40;4.00;;;;;;;28.37;41.37;64944.06;4944095;29;20340;-77
2022/08/18 08:56:42;;;;;;;4.38;3.97;;;;;;;28.67;41.02;64972.41;4942579;29;20212;-78
2022/08/18 08:59:11;;;;;;;4.13;3.83;;;;;;;28.76;39.81;64984.50;4949660;29;20229;-77
2022/08/18 09:01:47;;;;;;;6.15;4.10;;;;;;;28.88;39.68;64999.72;4937902;29;20198;-77
2022/08/18 09:04:36;;;;;;;5.32;4.47;;;;;;;28.97;40.08;65011.81;4940470;29;20231;-78
2022/08/18 09:07:17;;;;;;;10.13;5.50;;;;;;;29.03;40.29;65015.47;4937556;29;20238;-79
2022/08/18 09:10:12;;;;;;;6.35;4.40;;;;;;;28.68;40.29;64976.63;4942621;29;20295;-76
2022/08/18 09:12:53;;;;;;;4.43;4.13;;;;;;;28.73;41.28;64981.34;4939156;29;20213;-78
2022/08/18 09:15:33;;;;;;;6.97;4.10;;;;;;;28.87;41.19;64993.44;4935856;29;20244;-75
2022/08/18 09:18:25;;;;;;;4.05;3.80;;;;;;;28.85;40.38;64994.47;4932896;29;20205;-77
2022/08/18 09:21:09;;;;;;;6.75;4.65;;;;;;;28.72;40.18;64977.66;4942029;29;20272;-79
2022/08/18 09:23:42;;;;;;;6.82;4.68;;;;;;;28.88;39.56;64997.09;4937207;29;20225;-79
2022/08/18 09:26:25;;;;;;;5.78;4.05;;;;;;;28.95;38.50;65004.97;4935735;29;20200;-78
2022/08/18 09:28:56;;;;;;;5.25;4.75;;;;;;;28.51;39.10;64953.00;4935457;29;20224;-76
2022/08/18 09:31:25;;;;;;;6.03;4.07;;;;;;;28.58;38.95;64968.72;4931482;29;20271;-80
2022/08/18 09:34:23;;;;;;;5.47;3.63;;;;;;;28.94;38.03;65003.91;4937550;29;20230;-78
2022/08/18 09:37:16;;;;;;;4.20;4.00;;;;;;;29.11;38.00;65021.78;4940406;29;20256;-76
2022/08/18 09:42:41;;;;;;;7.28;4.03;;;;;;;29.20;37.35;65028.63;4933200;29;20223;-76
2022/08/18 09:45:11;;;;;;;7.00;4.18;;;;;;;29.09;37.47;65021.78;4936841;29;20257;-77
2022/08/18 09:48:01;;;;;;;7.15;4.15;;;;;;;29.26;37.80;65034.41;4941284;29;20205;-77
2022/08/18 09:50:51;;;;;;;4.15;3.85;;;;;;;29.40;36.63;65054.91;4936714;29;20292;-79
2022/08/18 09:53:36;;;;;;;4.38;3.70;;;;;;;29.48;36.48;65063.31;4935056;29;20449;-78
2022/08/18 09:56:05;;;;;;;4.65;4.13;;;;;;;29.63;35.66;65075.41;4932042;29;20204;-76
2022/08/18 09:59:04;;;;;;;6.05;3.95;;;;;;;29.76;35.95;65091.69;4944888;29;20541;-78
2022/08/18 10:01:40;;;;;;;5.60;4.45;;;;;;;29.87;36.50;65101.19;4877810;29;20219;-77
2022/08/18 10:04:28;;;;;;;4.70;4.40;;;;;;;29.73;36.77;65083.84;4929390;29;20220;-77
2022/08/18 10:07:16;;;;;;;7.10;5.15;;;;;;;29.74;36.59;65087.50;4933088;29;20205;-76
2022/08/18 10:10:11;;;;;;;4.32;4.03;;;;;;;29.92;36.44;65108.53;4929304;29;20517;-79
2022/08/18 10:13:00;;;;;;;3.90;3.70;;;;;;;30.21;36.53;65136.91;4929333;29;20295;-76
2022/08/18 10:15:36;;;;;;;4.38;3.85;;;;;;;30.16;35.94;65126.41;4936448;29;20211;-76
2022/08/18 10:18:34;;;;;;;4.20;3.80;;;;;;;29.84;36.67;65095.38;4944011;29;20252;-79
2022/08/18 10:21:10;;;;;;;5.20;3.80;;;;;;;29.87;36.08;65095.38;4933228;29;20213;-77
2022/08/18 10:23:54;;;;;;;3.85;3.58;;;;;;;29.91;36.05;65105.38;4945753;29;20377;-78
2022/08/18 10:27:07;;;;;;;9.95;4.03;;;;;;;29.89;36.17;65098.00;4932717;29;20277;-78
2022/08/18 10:29:59;;;;;;;8.88;4.45;;;;;;;29.92;35.49;65103.81;4932888;29;20296;-76
2022/08/18 10:32:44;;;;;;;4.70;4.25;;;;;;;30.07;35.26;65121.66;4920682;29;20454;-78
2022/08/18 10:35:51;;;;;;;6.90;4.35;;;;;;;30.07;35.85;65119.56;4929866;29;20256;-79
2022/08/18 10:38:29;;;;;;;4.57;4.20;;;;;;;29.97;35.97;65111.69;4931332;29;20209;-79
2022/08/18 10:41:02;;;;;;;4.55;4.03;;;;;;;30.04;35.18;65116.41;4933056;29;20400;-79
2022/08/18 10:43:35;;;;;;;4.18;3.88;;;;;;;30.18;34.46;65131.13;4943312;29;20237;-77
2022/08/18 10:46:03;;;;;;;5.10;4.60;;;;;;;30.32;34.58;65148.50;4930006;29;20213;-77
2022/08/18 10:48:33;;;;;;;5.65;3.88;;;;;;;30.39;33.62;65157.97;4941711;29;20224;-78
2022/08/18 10:51:07;;;;;;;4.50;4.10;;;;;;;30.59;33.73;65179.53;4948371;29;20335;-80
2022/08/18 10:53:43;;;;;;;4.00;3.70;;;;;;;30.81;34.43;65199.53;4948543;29;20228;-78
2022/08/18 10:56:24;;;;;;;4.38;3.92;;;;;;;30.85;33.39;65200.56;4937482;29;20201;-77
2022/08/18 10:59:03;;;;;;;3.80;3.53;;;;;;;30.97;34.02;65213.72;4940948;29;20236;-79
2022/08/18 11:01:47;;;;;;;4.72;4.30;;;;;;;30.71;34.65;65188.44;4931532;29;20208;-76
2022/08/18 11:04:27;;;;;;;5.05;4.57;;;;;;;30.77;34.16;65194.78;4942829;29;20228;-79
2022/08/18 11:07:03;;;;;;;4.60;4.13;;;;;;;30.91;33.68;65204.25;4933364;29;20207;-80
2022/08/18 11:09:32;;;;;;;6.45;4.18;;;;;;;30.84;33.38;65200.03;4935752;29;20243;-78
2022/08/18 11:12:02;;;;;;;4.25;3.85;;;;;;;30.92;34.14;65205.84;4946461;29;20217;-78
2022/08/18 11:15:05;;;;;;;3.60;3.47;;;;;;;30.89;33.67;65202.66;4940489;29;20220;-78
2022/08/18 11:17:50;;;;;;;3.80;3.60;;;;;;;30.95;34.47;65211.63;4926011;29;20217;-78
2022/08/18 11:20:21;;;;;;;3.95;3.58;;;;;;;30.79;33.47;65196.88;4947747;29;20490;-76
2022/08/18 11:22:54;;;;;;;4.63;4.18;;;;;;;30.79;34.28;65197.41;4944734;29;20207;-79
2022/08/18 11:25:26;;;;;;;4.00;3.70;;;;;;;31.12;34.01;65231.59;4930108;29;20526;-79
2022/08/18 11:27:55;;;;;;;3.83;3.63;;;;;;;31.24;33.90;65244.22;4938080;29;20232;-78
2022/08/18 11:30:26;;;;;;;5.57;3.88;;;;;;;31.52;32.71;65281.63;4952375;29;20255;-79
2022/08/18 11:32:53;;;;;;;5.20;4.00;;;;;;;31.65;32.29;65287.91;4952095;29;20208;-77
2022/08/18 11:35:30;;;;;;;5.28;3.90;;;;;;;31.34;32.96;65252.66;4946060;29;20268;-77
2022/08/18 11:38:00;;;;;;;5.57;4.18;;;;;;;31.55;32.75;65276.88;4932425;29;20235;-76
2022/08/18 11:40:37;;;;;;;3.88;3.67;;;;;;;31.68;31.47;65291.06;4938395;29;20206;-79
2022/08/18 11:43:12;;;;;;;4.32;3.92;;;;;;;31.91;31.83;65319.53;4945901;29;20209;-77
2022/08/18 11:45:52;;;;;;;5.88;3.55;;;;;;;31.77;31.13;65305.31;4935621;29;20209;-75
2022/08/18 11:48:23;;;;;;;6.57;3.58;;;;;;;31.55;31.49;65276.88;4945294;29;20238;-79
2022/08/18 11:51:01;;;;;;;5.45;3.78;;;;;;;31.45;31.91;65272.13;4953196;29;20232;-77
2022/08/18 11:53:42;;;;;;;4.25;4.05;;;;;;;31.56;31.52;65275.28;4949941;29;20228;-77
2022/08/18 11:56:17;;;;;;;10.13;4.20;;;;;;;31.60;31.19;65280.03;4950439;29;20204;-77
2022/08/18 11:58:48;;;;;;;3.58;3.38;;;;;;;31.80;30.86;65303.19;4943199;29;20232;-79
2022/08/18 12:01:36;;;;;;;10.05;4.53;;;;;;;31.89;30.44;65315.31;4932543;29;20228;-78
2022/08/18 12:04:22;;;;;;;4.05;3.40;;;;;;;32.14;30.30;65333.72;4933330;29;20240;-80
2022/08/18 12:07:03;;;;;;;4.28;3.53;;;;;;;32.14;29.62;65339.00;4944779;29;20536;-79
2022/08/18 12:09:35;;;;;;;6.22;4.13;;;;;;;32.08;30.11;65326.88;4946622;29;20604;-79
2022/08/18 12:12:07;;;;;;;3.78;3.47;;;;;;;31.93;30.09;65322.16;4951120;29;20244;-79
2022/08/18 12:14:54;;;;;;;3.55;3.30;;;;;;;32.02;30.41;65323.72;4953246;29;20239;-77
2022/08/18 12:17:22;;;;;;;4.43;4.03;;;;;;;31.79;30.76;65301.59;4944963;29;20511;-78